createdAt,value
2022-07-29T00:02:28.189Z,62.48
2022-07-29T00:04:55.203Z,62.44
2022-07-29T00:07:22.014Z,63.30
2022-07-29T00:09:52.156Z,62.48
2022-07-29T00:12:25.331Z,62.44
2022-07-29T00:14:57.642Z,62.93
2022-07-29T00:17:26.002Z,63.30
2022-07-29T00:19:58.862Z,63.49
2022-07-29T00:22:25.780Z,64.06
2022-07-29T00:24:55.259Z,63.50
2022-07-29T00:27:22.288Z,63.68
2022-07-29T00:30:15.446Z,63.44
2022-07-29T00:32:42.447Z,64.06
2022-07-29T00:35:09.723Z,64.08
2022-07-29T00:37:36.838Z,63.53
2022-07-29T00:40:04.321Z,63.95
2022-07-29T00:42:31.319Z,63.67
2022-07-29T00:45:00.826Z,64.12
2022-07-29T00:47:27.733Z,63.44
2022-07-29T00:49:54.597Z,63.32
2022-07-29T00:52:21.588Z,63.77
2022-07-29T00:54:48.546Z,64.04
2022-07-29T00:57:15.711Z,64.88
2022-07-29T00:59:42.625Z,64.53
2022-07-29T01:02:09.690Z,64.97
2022-07-29T01:04:36.684Z,64.54
2022-07-29T01:07:05.200Z,64.40
2022-07-29T01:09:46.416Z,64.01
2022-07-29T01:12:22.684Z,64.45
2022-07-29T01:14:51.127Z,64.21
2022-07-29T01:17:24.132Z,64.29
2022-07-29T01:20:21.316Z,64.74
2022-07-29T01:23:20.561Z,64.13
2022-07-29T01:26:52.621Z,64.23
2022-07-29T01:29:38.686Z,64.59
2022-07-29T01:32:18.070Z,64.31
2022-07-29T01:35:11.400Z,63.71
2022-07-29T01:37:46.264Z,64.53
2022-07-29T01:40:41.730Z,65.10
2022-07-29T01:43:13.873Z,65.11
2022-07-29T01:45:49.017Z,65.28
2022-07-29T01:48:43.331Z,65.09
2022-07-29T01:51:18.041Z,65.32
2022-07-29T01:54:19.995Z,64.62
2022-07-29T01:56:51.937Z,65.42
2022-07-29T01:59:21.269Z,65.47
2022-07-29T02:01:50.682Z,65.80
2022-07-29T02:04:29.395Z,65.79
2022-07-29T02:07:02.730Z,65.47
2022-07-29T02:09:31.552Z,65.13
2022-07-29T02:12:01.310Z,65.15
2022-07-29T02:14:32.268Z,65.71
2022-07-29T02:17:01.663Z,64.88
2022-07-29T02:19:30.370Z,64.95
2022-07-29T02:21:59.728Z,65.36
2022-07-29T02:24:27.715Z,65.09
2022-07-29T02:26:57.238Z,64.56
2022-07-29T02:29:27.372Z,64.13
2022-07-29T02:31:55.613Z,64.03
2022-07-29T02:34:24.443Z,63.89
2022-07-29T02:36:56.756Z,63.47
2022-07-29T02:39:27.350Z,63.16
2022-07-29T02:42:02.357Z,62.98
2022-07-29T02:44:34.422Z,62.76
2022-07-29T02:47:41.900Z,62.70
2022-07-29T02:50:32.183Z,62.27
2022-07-29T02:53:03.902Z,62.35
2022-07-29T02:55:35.808Z,61.97
2022-07-29T02:58:09.754Z,61.14
2022-07-29T03:00:39.334Z,61.04
2022-07-29T03:03:12.241Z,61.25
2022-07-29T03:05:40.629Z,61.10
2022-07-29T03:08:11.444Z,60.71
2022-07-29T03:10:44.797Z,60.19
2022-07-29T03:13:13.532Z,57.08
2022-07-29T03:15:40.930Z,55.84
2022-07-29T03:18:08.559Z,52.87
2022-07-29T03:20:35.493Z,51.17
2022-07-29T03:23:02.503Z,50.07
2022-07-29T03:25:29.425Z,48.94
2022-07-29T03:27:56.351Z,50.28
2022-07-29T03:30:23.749Z,49.48
2022-07-29T03:32:52.696Z,46.82
2022-07-29T03:35:21.138Z,44.80
2022-07-29T03:37:50.803Z,44.23
2022-07-29T03:40:24.104Z,42.65
2022-07-29T03:42:54.916Z,41.23
2022-07-29T03:45:23.525Z,39.90
2022-07-29T03:48:00.629Z,38.33
2022-07-29T03:50:31.653Z,38.20
2022-07-29T03:52:59.276Z,37.91
2022-07-29T03:55:29.363Z,36.84
2022-07-29T03:58:22.895Z,35.29
2022-07-29T04:00:50.708Z,35.44
2022-07-29T04:03:17.640Z,35.72
2022-07-29T04:05:44.668Z,37.00
2022-07-29T04:08:11.605Z,39.95
2022-07-29T04:10:39.282Z,41.67
2022-07-29T04:13:06.527Z,42.58
2022-07-29T04:15:33.551Z,43.12
2022-07-29T04:18:00.722Z,43.35
2022-07-29T04:20:27.880Z,44.90
2022-07-29T04:22:54.668Z,46.57
2022-07-29T04:25:21.634Z,45.49
2022-07-29T04:27:48.485Z,47.54
2022-07-29T04:30:15.395Z,47.45
2022-07-29T04:32:44.404Z,48.22
2022-07-29T04:35:11.316Z,49.80
2022-07-29T04:37:38.309Z,50.12
2022-07-29T04:40:05.852Z,48.91
2022-07-29T04:42:32.693Z,48.43
2022-07-29T04:45:01.418Z,47.58
2022-07-29T04:47:28.309Z,45.70
2022-07-29T04:49:55.230Z,44.18
2022-07-29T04:52:22.033Z,43.63
2022-07-29T04:54:49.382Z,42.28
2022-07-29T04:57:16.246Z,43.25
2022-07-29T04:59:43.155Z,42.71
2022-07-29T05:02:38.784Z,42.29
2022-07-29T05:05:05.969Z,41.81
2022-07-29T05:07:47.280Z,42.70
2022-07-29T05:10:14.241Z,42.61
2022-07-29T05:12:41.060Z,43.37
2022-07-29T05:15:08.538Z,42.74
2022-07-29T05:17:35.358Z,42.70
2022-07-29T05:20:03.028Z,43.19
2022-07-29T05:22:29.908Z,43.95
2022-07-29T05:25:01.456Z,43.81
2022-07-29T05:27:30.147Z,42.90
2022-07-29T05:29:56.968Z,43.70
2022-07-29T05:32:23.888Z,44.72
2022-07-29T05:34:51.916Z,44.72
2022-07-29T05:37:20.972Z,45.00
2022-07-29T05:39:50.420Z,45.01
2022-07-29T05:42:17.839Z,45.39
2022-07-29T05:44:44.696Z,45.35
2022-07-29T05:47:11.544Z,45.65
2022-07-29T05:49:38.374Z,45.47
2022-07-29T05:52:05.876Z,46.03
2022-07-29T05:54:32.678Z,45.70
2022-07-29T05:56:59.508Z,45.66
2022-07-29T05:59:30.278Z,46.24
2022-07-29T06:01:57.777Z,45.47
2022-07-29T06:04:24.731Z,45.50
2022-07-29T06:06:57.645Z,46.63
2022-07-29T06:09:24.865Z,44.39
2022-07-29T06:11:51.690Z,46.32
2022-07-29T06:14:19.144Z,45.75
2022-07-29T06:16:47.312Z,46.40
2022-07-29T06:19:14.278Z,46.55
2022-07-29T06:21:45.236Z,46.30
2022-07-29T06:24:13.582Z,46.20
2022-07-29T06:26:41.771Z,47.34
2022-07-29T06:29:09.509Z,47.92
2022-07-29T06:31:36.320Z,47.28
2022-07-29T06:34:03.913Z,47.94
2022-07-29T06:36:31.845Z,48.87
2022-07-29T06:38:58.717Z,49.13
2022-07-29T06:41:26.340Z,49.09
2022-07-29T06:43:56.834Z,49.78
2022-07-29T06:46:29.185Z,49.85
2022-07-29T06:48:56.194Z,50.69
2022-07-29T06:51:24.197Z,51.12
2022-07-29T06:54:02.886Z,51.67
2022-07-29T06:56:39.434Z,52.17
2022-07-29T06:59:11.312Z,52.55
2022-07-29T07:01:47.459Z,52.27
2022-07-29T07:04:15.033Z,52.50
2022-07-29T07:06:42.233Z,53.79
2022-07-29T07:09:12.895Z,53.22
2022-07-29T07:11:41.031Z,52.74
2022-07-29T07:14:10.593Z,52.67
2022-07-29T07:16:40.164Z,52.17
2022-07-29T07:19:08.337Z,52.77
2022-07-29T07:21:55.487Z,51.26
2022-07-29T07:24:22.726Z,52.74
2022-07-29T07:26:49.664Z,52.61
2022-07-29T07:29:16.718Z,51.88
2022-07-29T07:31:43.726Z,54.50
2022-07-29T07:34:14.199Z,54.54
2022-07-29T07:36:41.417Z,53.91
2022-07-29T07:39:09.306Z,53.64
2022-07-29T07:42:08.725Z,54.73
2022-07-29T07:44:51.346Z,53.21
2022-07-29T07:47:22.761Z,53.54
2022-07-29T07:49:55.072Z,52.60
2022-07-29T07:52:23.055Z,54.02
2022-07-29T07:54:52.449Z,53.44
2022-07-29T07:57:24.980Z,53.36
2022-07-29T07:59:54.901Z,52.60
2022-07-29T08:02:22.004Z,52.59
2022-07-29T08:05:04.491Z,52.14
2022-07-29T08:07:38.831Z,51.98
2022-07-29T08:10:06.601Z,53.41
2022-07-29T08:12:33.661Z,53.22
2022-07-29T08:15:00.657Z,52.73
2022-07-29T08:17:27.662Z,53.40
2022-07-29T08:19:55.031Z,53.03
2022-07-29T08:22:21.925Z,53.03
2022-07-29T08:24:51.654Z,52.22
2022-07-29T08:27:42.479Z,50.97
2022-07-29T08:30:08.869Z,50.67
2022-07-29T08:33:04.997Z,49.84
2022-07-29T08:35:35.630Z,50.71
2022-07-29T08:38:32.659Z,51.30
2022-07-29T08:41:01.338Z,51.07
2022-07-29T08:43:34.333Z,51.07
2022-07-29T08:46:01.623Z,50.27
2022-07-29T08:48:28.549Z,49.64
2022-07-29T08:50:58.979Z,49.31
2022-07-29T08:53:29.231Z,50.21
2022-07-29T08:55:57.533Z,49.96
2022-07-29T08:58:26.500Z,48.42
2022-07-29T09:00:56.437Z,48.68
2022-07-29T09:03:51.094Z,49.43
2022-07-29T09:06:21.979Z,49.95
2022-07-29T09:09:08.799Z,49.00
2022-07-29T09:11:36.241Z,48.85
2022-07-29T09:14:10.443Z,48.59
2022-07-29T09:16:57.765Z,48.17
2022-07-29T09:19:31.063Z,48.56
2022-07-29T09:22:03.013Z,48.89
2022-07-29T09:24:45.288Z,48.71
2022-07-29T09:27:23.257Z,48.63
2022-07-29T09:30:08.066Z,48.49
2022-07-29T09:33:01.404Z,48.07
2022-07-29T09:35:31.801Z,47.56
2022-07-29T09:38:01.673Z,46.05
2022-07-29T09:40:29.354Z,44.73
2022-07-29T09:43:10.133Z,45.95
2022-07-29T09:45:37.383Z,45.34
2022-07-29T09:48:24.318Z,45.21
2022-07-29T09:50:52.205Z,46.38
2022-07-29T09:53:38.934Z,45.48
2022-07-29T09:56:08.860Z,45.62
2022-07-29T09:58:36.593Z,46.33
2022-07-29T10:01:03.900Z,45.04
2022-07-29T10:03:30.903Z,44.08
2022-07-29T10:06:12.699Z,44.68
2022-07-29T10:08:39.834Z,43.53
2022-07-29T10:11:16.436Z,43.76
2022-07-29T10:13:45.325Z,44.12
2022-07-29T10:16:13.898Z,43.34
2022-07-29T10:18:43.402Z,42.83
2022-07-29T10:21:10.964Z,43.04
2022-07-29T10:23:46.216Z,43.96
2022-07-29T10:26:14.247Z,44.69
2022-07-29T10:28:43.940Z,43.43
2022-07-29T10:31:28.528Z,43.48
2022-07-29T10:34:31.728Z,41.93
2022-07-29T10:37:21.187Z,41.04
2022-07-29T10:40:01.782Z,40.69
2022-07-29T10:42:34.347Z,41.29
2022-07-29T10:45:04.784Z,42.33
2022-07-29T10:47:32.216Z,42.41
2022-07-29T10:50:06.036Z,42.50
2022-07-29T10:52:51.315Z,41.70
2022-07-29T10:55:38.170Z,39.25
2022-07-29T10:58:43.405Z,38.60
2022-07-29T11:01:37.072Z,39.25
2022-07-29T11:04:04.968Z,40.34
2022-07-29T11:07:07.056Z,39.30
2022-07-29T11:09:37.678Z,38.98
2022-07-29T11:12:37.517Z,41.13
2022-07-29T11:15:09.144Z,39.73
2022-07-29T11:17:54.437Z,40.00
2022-07-29T11:20:39.429Z,38.34
2022-07-29T11:26:23.417Z,37.13
2022-07-29T11:29:16.900Z,37.03
2022-07-29T11:31:51.182Z,36.64
2022-07-29T11:34:28.067Z,36.93
2022-07-29T11:37:08.877Z,38.16
2022-07-29T11:39:39.335Z,37.52
2022-07-29T11:42:28.844Z,37.70
2022-07-29T11:45:41.494Z,36.99
2022-07-29T11:48:03.438Z,36.70
2022-07-29T11:50:36.006Z,37.21
2022-07-29T11:53:12.186Z,37.49
2022-07-29T11:55:51.571Z,38.35
2022-07-29T11:58:29.343Z,37.68
2022-07-29T12:00:57.753Z,37.68
2022-07-29T12:03:32.765Z,37.00
2022-07-29T12:06:23.366Z,37.92
2022-07-29T12:08:50.381Z,37.47
2022-07-29T12:11:21.805Z,37.30
2022-07-29T12:13:52.556Z,36.32
2022-07-29T12:16:25.330Z,36.12
2022-07-29T12:19:02.974Z,34.91
2022-07-29T12:21:52.374Z,34.49
2022-07-29T12:24:23.600Z,34.38
2022-07-29T12:26:58.584Z,34.17
2022-07-29T12:29:34.485Z,34.21
2022-07-29T12:32:04.966Z,33.87
2022-07-29T12:34:32.901Z,33.03
2022-07-29T12:36:59.948Z,33.51
2022-07-29T12:39:27.344Z,33.29
2022-07-29T12:42:03.884Z,34.20
2022-07-29T12:44:50.277Z,34.53
2022-07-29T12:47:19.151Z,34.40
2022-07-29T12:49:48.959Z,34.60
2022-07-29T12:52:29.312Z,34.92
2022-07-29T12:54:56.447Z,34.01
2022-07-29T12:57:23.492Z,35.00
2022-07-29T13:00:12.707Z,35.36
2022-07-29T13:02:41.315Z,35.63
2022-07-29T13:05:09.932Z,35.54
2022-07-29T13:07:54.227Z,35.65
2022-07-29T13:10:24.994Z,35.08
2022-07-29T13:13:08.329Z,35.95
2022-07-29T13:15:36.038Z,34.61
2022-07-29T13:18:02.955Z,35.38
2022-07-29T13:20:30.909Z,34.61
2022-07-29T13:23:01.473Z,35.05
2022-07-29T13:25:31.298Z,34.45
2022-07-29T13:27:59.120Z,34.45
2022-07-29T13:30:26.889Z,34.68
2022-07-29T13:32:53.895Z,34.00
2022-07-29T13:35:21.117Z,34.09
2022-07-29T13:37:48.306Z,34.07
2022-07-29T13:40:18.640Z,34.21
2022-07-29T13:42:45.731Z,34.26
2022-07-29T13:45:13.913Z,33.94
2022-07-29T13:47:49.492Z,33.96
2022-07-29T13:50:16.490Z,33.70
2022-07-29T13:52:43.386Z,32.99
2022-07-29T13:55:21.281Z,33.42
2022-07-29T13:57:54.922Z,33.84
2022-07-29T14:00:22.119Z,33.80
2022-07-29T14:02:49.538Z,33.40
2022-07-29T14:05:16.465Z,33.01
2022-07-29T14:07:43.351Z,33.20
2022-07-29T14:10:11.170Z,33.28
2022-07-29T14:12:57.510Z,33.08
2022-07-29T14:15:24.602Z,34.32
2022-07-29T14:17:51.587Z,33.06
2022-07-29T14:20:18.565Z,32.71
2022-07-29T14:22:45.828Z,32.42
2022-07-29T14:25:14.722Z,32.80
2022-07-29T14:28:02.570Z,32.54
2022-07-29T14:30:29.486Z,33.03
2022-07-29T14:32:56.293Z,33.52
2022-07-29T14:35:23.191Z,33.62
2022-07-29T14:37:49.983Z,33.08
2022-07-29T14:40:17.034Z,33.45
2022-07-29T14:42:43.900Z,32.68
2022-07-29T14:45:11.652Z,32.68
2022-07-29T14:47:39.401Z,33.28
2022-07-29T14:50:07.588Z,33.65
2022-07-29T14:52:37.122Z,32.56
2022-07-29T14:55:05.357Z,33.28
2022-07-29T14:57:43.332Z,32.82
2022-07-29T15:00:11.151Z,32.88
2022-07-29T15:03:00.488Z,32.77
2022-07-29T15:05:25.448Z,32.34
2022-07-29T15:07:56.046Z,32.96
2022-07-29T15:10:25.701Z,33.15
2022-07-29T15:12:54.936Z,33.19
2022-07-29T15:15:24.324Z,33.28
2022-07-29T15:17:54.110Z,33.46
2022-07-29T15:20:23.937Z,34.04
2022-07-29T15:22:50.943Z,34.43
2022-07-29T15:25:17.808Z,33.85
2022-07-29T15:27:48.931Z,33.61
2022-07-29T15:30:32.981Z,33.61
2022-07-29T15:33:02.000Z,34.18
2022-07-29T15:35:28.951Z,34.29
2022-07-29T15:38:03.421Z,34.68
2022-07-29T15:40:31.430Z,34.51
2022-07-29T15:42:58.288Z,34.69
2022-07-29T15:45:41.696Z,34.91
2022-07-29T15:48:15.696Z,35.21
2022-07-29T15:50:47.193Z,34.95
2022-07-29T15:53:23.390Z,35.25
2022-07-29T15:56:00.761Z,35.74
2022-07-29T15:59:06.337Z,35.47
2022-07-29T16:01:33.335Z,35.51
2022-07-29T16:04:00.289Z,35.88
2022-07-29T16:06:47.750Z,36.18
2022-07-29T16:09:15.782Z,35.89
2022-07-29T16:11:54.195Z,36.25
2022-07-29T16:14:21.285Z,36.98
2022-07-29T16:16:48.903Z,37.29
2022-07-29T16:19:19.008Z,36.90
2022-07-29T16:21:45.842Z,37.24
2022-07-29T16:24:29.033Z,37.30
2022-07-29T16:26:57.469Z,37.11
2022-07-29T16:29:26.979Z,38.04
2022-07-29T16:31:54.085Z,38.21
2022-07-29T16:34:31.112Z,38.51
2022-07-29T16:36:58.115Z,37.78
2022-07-29T16:39:25.097Z,37.86
2022-07-29T16:41:52.086Z,38.30
2022-07-29T16:44:18.954Z,37.97
2022-07-29T16:46:46.468Z,38.18
2022-07-29T16:49:19.210Z,38.38
2022-07-29T16:51:46.688Z,38.58
2022-07-29T16:54:13.810Z,38.96
2022-07-29T16:56:40.790Z,39.63
2022-07-29T16:59:26.129Z,39.69
2022-07-29T17:01:53.131Z,39.89
2022-07-29T17:04:20.161Z,40.07
2022-07-29T17:06:49.766Z,40.24
2022-07-29T17:09:56.371Z,39.38
2022-07-29T17:12:25.061Z,40.55
2022-07-29T17:14:51.890Z,40.81
2022-07-29T17:17:20.982Z,40.85
2022-07-29T17:20:07.199Z,39.98
2022-07-29T17:22:34.250Z,40.92
2022-07-29T17:25:01.226Z,40.39
2022-07-29T17:27:34.425Z,40.47
2022-07-29T17:30:02.103Z,41.25
2022-07-29T17:32:28.938Z,40.65
2022-07-29T17:34:55.862Z,40.49
2022-07-29T17:37:23.002Z,41.88
2022-07-29T17:39:49.948Z,41.94
2022-07-29T17:42:16.819Z,42.19
2022-07-29T17:44:44.500Z,42.52
2022-07-29T17:47:16.293Z,42.45
2022-07-29T17:49:44.983Z,43.02
2022-07-29T17:52:11.836Z,43.45
2022-07-29T17:54:38.827Z,43.63
2022-07-29T17:57:05.875Z,43.09
2022-07-29T17:59:32.942Z,44.23
2022-07-29T18:01:59.800Z,44.24
2022-07-29T18:04:26.721Z,44.19
2022-07-29T18:06:53.594Z,44.92
2022-07-29T18:09:23.345Z,44.67
2022-07-29T18:11:51.475Z,44.86
2022-07-29T18:14:18.321Z,45.38
2022-07-29T18:16:45.331Z,45.34
2022-07-29T18:19:28.581Z,44.92
2022-07-29T18:21:58.228Z,44.92
2022-07-29T18:24:27.337Z,45.31
2022-07-29T18:26:54.373Z,46.01
2022-07-29T18:29:21.663Z,45.54
2022-07-29T18:31:48.581Z,45.98
2022-07-29T18:34:15.665Z,45.53
2022-07-29T18:36:42.462Z,46.03
2022-07-29T18:39:09.418Z,46.68
2022-07-29T18:41:50.037Z,46.09
2022-07-29T18:44:22.007Z,46.26
2022-07-29T18:46:50.715Z,45.96
2022-07-29T18:49:17.769Z,47.13
2022-07-29T18:51:44.942Z,47.05
2022-07-29T18:54:11.924Z,47.24
2022-07-29T18:56:42.003Z,46.75
2022-07-29T18:59:08.960Z,47.37
2022-07-29T19:01:36.014Z,47.40
2022-07-29T19:04:03.215Z,47.32
2022-07-29T19:06:30.103Z,47.73
2022-07-29T19:08:56.988Z,47.88
2022-07-29T19:11:23.805Z,48.05
2022-07-29T19:13:53.640Z,47.71
2022-07-29T19:16:20.523Z,47.50
2022-07-29T19:18:47.422Z,47.92
2022-07-29T19:21:14.283Z,47.70
2022-07-29T19:24:01.907Z,47.72
2022-07-29T19:26:29.523Z,47.92
2022-07-29T19:28:56.431Z,48.11
2022-07-29T19:31:23.454Z,48.09
2022-07-29T19:33:50.889Z,48.97
2022-07-29T19:36:17.883Z,48.86
2022-07-29T19:38:44.779Z,48.38
2022-07-29T19:41:30.412Z,48.78
2022-07-29T19:43:57.323Z,48.86
2022-07-29T19:46:24.868Z,48.99
2022-07-29T19:48:52.465Z,49.03
2022-07-29T19:51:19.299Z,48.77
2022-07-29T19:53:46.255Z,48.66
2022-07-29T19:56:13.089Z,48.76
2022-07-29T19:58:39.923Z,48.58
2022-07-29T20:01:10.497Z,48.73
2022-07-29T20:03:39.470Z,48.90
2022-07-29T20:06:09.254Z,49.65
2022-07-29T20:08:36.624Z,48.98
2022-07-29T20:11:06.532Z,48.81
2022-07-29T20:13:37.492Z,49.07
2022-07-29T20:16:20.816Z,49.18
2022-07-29T20:18:47.881Z,48.86
2022-07-29T20:21:14.755Z,49.11
2022-07-29T20:23:41.701Z,49.25
2022-07-29T20:26:09.718Z,49.24
2022-07-29T20:28:36.870Z,49.61
2022-07-29T20:31:12.694Z,50.41
2022-07-29T20:33:48.261Z,50.36
2022-07-29T20:36:15.332Z,50.35
2022-07-29T20:38:42.128Z,50.55
2022-07-29T20:41:10.393Z,50.37
2022-07-29T20:43:39.935Z,51.34
2022-07-29T20:46:12.461Z,51.17
2022-07-29T20:48:42.212Z,50.94
2022-07-29T20:51:09.325Z,51.01
2022-07-29T20:53:38.739Z,51.50
2022-07-29T20:56:06.724Z,51.26
2022-07-29T20:58:34.365Z,51.44
2022-07-29T21:01:01.946Z,51.58
2022-07-29T21:03:29.228Z,51.27
2022-07-29T21:06:16.389Z,51.21
2022-07-29T21:08:43.658Z,51.44
2022-07-29T21:11:10.496Z,51.29
2022-07-29T21:13:37.537Z,51.72
2022-07-29T21:16:09.682Z,51.53
2022-07-29T21:18:39.654Z,51.55
2022-07-29T21:21:09.117Z,51.35
2022-07-29T21:23:36.007Z,51.81
2022-07-29T21:26:03.293Z,51.42
2022-07-29T21:28:38.615Z,51.44
2022-07-29T21:31:14.063Z,51.77
2022-07-29T21:33:42.999Z,51.55
2022-07-29T21:36:47.911Z,51.82
2022-07-29T21:39:15.356Z,51.42
2022-07-29T21:41:44.467Z,51.67
2022-07-29T21:44:13.477Z,51.88
2022-07-29T21:46:40.451Z,51.87
2022-07-29T21:49:10.469Z,51.70
2022-07-29T21:51:37.320Z,51.64
2022-07-29T21:54:04.508Z,51.70
2022-07-29T21:56:33.813Z,52.44
2022-07-29T21:59:00.730Z,52.65
2022-07-29T22:01:48.500Z,52.50
2022-07-29T22:04:15.909Z,52.66
2022-07-29T22:06:42.826Z,52.78
2022-07-29T22:09:09.771Z,52.57
2022-07-29T22:11:36.705Z,52.82
2022-07-29T22:14:05.482Z,53.01
2022-07-29T22:16:32.477Z,52.59
2022-07-29T22:18:59.417Z,53.10
2022-07-29T22:21:31.434Z,53.19
2022-07-29T22:23:58.468Z,53.04
2022-07-29T22:26:25.295Z,53.51
2022-07-29T22:28:52.323Z,52.89
2022-07-29T22:31:19.512Z,53.32
2022-07-29T22:33:50.447Z,53.35
2022-07-29T22:36:18.463Z,53.54
2022-07-29T22:38:49.105Z,53.58
2022-07-29T22:41:18.601Z,53.47
2022-07-29T22:43:45.430Z,53.67
2022-07-29T22:46:12.327Z,53.38
2022-07-29T22:48:39.261Z,53.47
2022-07-29T22:51:06.272Z,53.48
2022-07-29T22:53:33.072Z,53.75
2022-07-29T22:55:59.963Z,53.62
2022-07-29T22:58:26.910Z,53.63
2022-07-29T23:00:53.890Z,53.68
2022-07-29T23:03:21.777Z,53.70
2022-07-29T23:05:48.908Z,53.96
2022-07-29T23:08:15.740Z,54.34
2022-07-29T23:10:42.994Z,53.93
2022-07-29T23:13:10.464Z,54.10
2022-07-29T23:15:37.798Z,54.13
2022-07-29T23:18:04.676Z,54.17
2022-07-29T23:20:31.676Z,54.67
2022-07-29T23:22:58.643Z,54.82
2022-07-29T23:25:25.643Z,55.00
2022-07-29T23:27:52.579Z,54.77
2022-07-29T23:30:19.455Z,55.85
2022-07-29T23:32:46.558Z,55.13
2022-07-29T23:35:13.696Z,54.97
2022-07-29T23:37:40.620Z,55.76
2022-07-29T23:40:30.554Z,55.42
2022-07-29T23:42:57.445Z,55.15
2022-07-29T23:45:42.462Z,55.33
2022-07-29T23:48:11.195Z,55.06
2022-07-29T23:50:38.008Z,55.14
2022-07-29T23:53:04.857Z,55.56
2022-07-29T23:55:36.331Z,55.90
2022-07-29T23:58:05.232Z,54.64
